createdAt,value
2023-03-30T00:00:02.000Z,0
2023-03-30T00:01:17.000Z,0
2023-03-30T00:02:33.341Z,0
2023-03-30T00:03:48.000Z,0
2023-03-30T00:05:04.000Z,0
2023-03-30T00:06:20.000Z,0
2023-03-30T00:07:37.000Z,0
2023-03-30T00:08:53.000Z,0
2023-03-30T00:10:09.000Z,0
2023-03-30T00:11:26.000Z,0
2023-03-30T00:12:42.000Z,0
2023-03-30T00:13:58.000Z,0
2023-03-30T00:15:14.000Z,0
2023-03-30T00:16:31.000Z,0
2023-03-30T00:17:47.000Z,0
2023-03-30T00:19:03.000Z,0
2023-03-30T00:20:19.000Z,0
2023-03-30T00:21:35.706Z,0
2023-03-30T00:22:51.979Z,0
2023-03-30T00:24:08.000Z,0
2023-03-30T00:25:24.000Z,0
2023-03-30T00:26:40.000Z,0
2023-03-30T00:27:56.000Z,0
2023-03-30T00:29:12.000Z,0
2023-03-30T00:30:27.000Z,0
2023-03-30T00:31:42.000Z,0
2023-03-30T00:32:58.000Z,0
2023-03-30T00:34:14.000Z,0
2023-03-30T00:35:30.000Z,0
2023-03-30T00:36:46.000Z,0
2023-03-30T00:38:03.524Z,0
2023-03-30T00:39:19.000Z,0
2023-03-30T00:40:35.000Z,0
2023-03-30T00:41:52.000Z,0
2023-03-30T00:43:08.000Z,0
2023-03-30T00:44:24.000Z,0
2023-03-30T00:45:40.000Z,0
2023-03-30T00:46:57.000Z,0
2023-03-30T00:48:13.000Z,0
2023-03-30T00:49:28.000Z,0
2023-03-30T00:50:45.000Z,0
2023-03-30T00:52:01.000Z,0
2023-03-30T00:53:17.000Z,0
2023-03-30T00:54:34.000Z,0
2023-03-30T00:55:50.000Z,0
2023-03-30T00:57:06.000Z,0
2023-03-30T00:58:21.000Z,0
2023-03-30T00:59:37.456Z,0
2023-03-30T01:00:53.000Z,0
2023-03-30T01:02:08.000Z,0
2023-03-30T01:03:24.000Z,0
2023-03-30T01:04:40.000Z,0
2023-03-30T01:05:56.000Z,0
2023-03-30T01:07:12.000Z,0
2023-03-30T01:08:29.000Z,0
2023-03-30T01:09:45.771Z,0
2023-03-30T01:11:01.000Z,0
2023-03-30T01:12:18.000Z,0
2023-03-30T01:13:34.638Z,0
2023-03-30T01:14:50.000Z,0
2023-03-30T01:16:06.000Z,0
2023-03-30T01:17:23.000Z,0
2023-03-30T01:18:39.000Z,0
2023-03-30T01:19:54.000Z,0
2023-03-30T01:21:11.000Z,0
2023-03-30T01:22:27.687Z,0
2023-03-30T01:23:43.000Z,0
2023-03-30T01:25:00.000Z,0
2023-03-30T01:26:16.000Z,0
2023-03-30T01:27:32.000Z,0
2023-03-30T01:28:48.146Z,0
2023-03-30T01:30:03.000Z,0
2023-03-30T01:31:19.739Z,0
2023-03-30T01:32:34.000Z,0
2023-03-30T01:33:50.000Z,0
2023-03-30T01:35:06.000Z,0
2023-03-30T01:36:22.000Z,0
2023-03-30T01:37:39.205Z,0
2023-03-30T01:38:55.000Z,0
2023-03-30T01:40:11.000Z,0
2023-03-30T01:41:27.000Z,0
2023-03-30T01:42:44.000Z,0
2023-03-30T01:44:00.652Z,0
2023-03-30T01:45:16.000Z,0
2023-03-30T01:46:32.000Z,0
2023-03-30T01:47:49.000Z,0
2023-03-30T01:49:05.000Z,0
2023-03-30T01:50:20.000Z,0
2023-03-30T01:51:37.000Z,0
2023-03-30T01:52:53.000Z,0
2023-03-30T01:54:09.000Z,0
2023-03-30T01:55:25.000Z,0
2023-03-30T01:56:41.000Z,0
2023-03-30T01:57:57.000Z,0
2023-03-30T01:59:13.150Z,0
2023-03-30T02:00:28.000Z,0
2023-03-30T02:01:44.000Z,0
2023-03-30T02:02:59.000Z,0
2023-03-30T02:04:15.000Z,0
2023-03-30T02:05:31.000Z,0
2023-03-30T02:06:47.000Z,0
2023-03-30T02:08:03.000Z,0
2023-03-30T02:09:20.000Z,0
2023-03-30T02:10:36.000Z,0
2023-03-30T02:11:52.000Z,0
2023-03-30T02:13:09.000Z,0
2023-03-30T02:14:25.000Z,0
2023-03-30T02:15:41.945Z,0
2023-03-30T02:16:57.000Z,0
2023-03-30T02:18:14.000Z,0
2023-03-30T02:19:30.000Z,0
2023-03-30T02:20:45.000Z,0
2023-03-30T02:22:02.000Z,0
2023-03-30T02:23:18.000Z,0
2023-03-30T02:24:34.000Z,0
2023-03-30T02:25:51.000Z,0
2023-03-30T02:27:07.000Z,0
2023-03-30T02:28:23.829Z,0
2023-03-30T02:29:38.000Z,0
2023-03-30T02:30:54.000Z,0
2023-03-30T02:32:10.000Z,0
2023-03-30T02:33:25.000Z,0
2023-03-30T02:34:41.000Z,0
2023-03-30T02:35:57.000Z,0
2023-03-30T02:37:13.000Z,0
2023-03-30T02:38:29.000Z,0
2023-03-30T02:39:46.000Z,0
2023-03-30T02:41:02.000Z,0
2023-03-30T02:42:18.000Z,0
2023-03-30T02:43:35.000Z,0
2023-03-30T02:44:51.000Z,0
2023-03-30T02:46:07.000Z,0
2023-03-30T02:47:23.000Z,0
2023-03-30T02:48:40.000Z,0
2023-03-30T02:49:56.810Z,0
2023-03-30T02:51:11.000Z,0
2023-03-30T02:52:28.000Z,0
2023-03-30T02:53:44.684Z,0
2023-03-30T02:55:00.000Z,0
2023-03-30T02:56:17.000Z,0
2023-03-30T02:57:33.000Z,0
2023-03-30T02:58:49.000Z,0
2023-03-30T03:00:05.000Z,0
2023-03-30T03:01:22.000Z,0
2023-03-30T03:02:38.000Z,0
2023-03-30T03:03:54.000Z,0
2023-03-30T03:05:11.000Z,0
2023-03-30T03:06:27.546Z,0
2023-03-30T03:07:42.000Z,0
2023-03-30T03:08:58.000Z,0
2023-03-30T03:10:15.000Z,0
2023-03-30T03:11:31.000Z,0
2023-03-30T03:12:46.000Z,0
2023-03-30T03:14:02.000Z,0
2023-03-30T03:15:18.609Z,0
2023-03-30T03:16:34.920Z,0
2023-03-30T03:17:50.000Z,0
2023-03-30T03:19:06.000Z,0
2023-03-30T03:20:21.000Z,0
2023-03-30T03:21:37.000Z,0
2023-03-30T03:22:54.000Z,0
2023-03-30T03:24:10.000Z,0
2023-03-30T03:25:26.000Z,0
2023-03-30T03:26:43.000Z,0
2023-03-30T03:27:59.000Z,0
2023-03-30T03:29:15.000Z,0
2023-03-30T03:30:31.000Z,0
2023-03-30T03:31:48.000Z,0
2023-03-30T03:33:04.000Z,0
2023-03-30T03:34:20.000Z,0
2023-03-30T03:35:37.000Z,0
2023-03-30T03:36:52.000Z,0
2023-03-30T03:38:08.000Z,0
2023-03-30T03:39:24.000Z,0
2023-03-30T03:40:41.000Z,0
2023-03-30T03:41:57.000Z,0
2023-03-30T03:43:13.000Z,0
2023-03-30T03:44:30.279Z,0
2023-03-30T03:45:45.000Z,0
2023-03-30T03:47:00.000Z,0
2023-03-30T03:48:16.000Z,0
2023-03-30T03:49:32.000Z,0
2023-03-30T03:50:47.000Z,0
2023-03-30T03:52:03.000Z,0
2023-03-30T03:53:20.000Z,0
2023-03-30T03:54:36.000Z,0
2023-03-30T03:55:52.000Z,0
2023-03-30T03:57:08.000Z,0
2023-03-30T03:58:25.000Z,0
2023-03-30T03:59:41.000Z,0
2023-03-30T04:00:57.000Z,0
2023-03-30T04:02:14.000Z,0
2023-03-30T04:03:30.000Z,0
2023-03-30T04:04:46.000Z,0
2023-03-30T04:06:03.263Z,0
2023-03-30T04:07:18.000Z,0
2023-03-30T04:08:34.000Z,0
2023-03-30T04:09:50.000Z,0
2023-03-30T04:11:07.000Z,0
2023-03-30T04:12:23.000Z,0
2023-03-30T04:13:39.000Z,0
2023-03-30T04:14:56.040Z,0
2023-03-30T04:16:11.611Z,0
2023-03-30T04:17:26.000Z,0
2023-03-30T04:18:42.000Z,0
2023-03-30T04:19:58.000Z,0
2023-03-30T04:21:13.000Z,0
2023-03-30T04:22:30.079Z,0
2023-03-30T04:23:46.000Z,0
2023-03-30T04:25:02.000Z,0
2023-03-30T04:26:18.000Z,0
2023-03-30T04:27:34.000Z,0
2023-03-30T04:28:51.000Z,0
2023-03-30T04:30:07.000Z,0
2023-03-30T04:31:23.000Z,0
2023-03-30T04:32:40.000Z,0
2023-03-30T04:33:56.000Z,0
2023-03-30T04:35:12.000Z,0
2023-03-30T04:36:29.000Z,0
2023-03-30T04:37:44.000Z,0
2023-03-30T04:39:00.000Z,0
2023-03-30T04:40:16.000Z,0
2023-03-30T04:41:33.000Z,1
2023-03-30T04:42:49.000Z,0
2023-03-30T04:44:05.000Z,0
2023-03-30T04:45:21.000Z,0
2023-03-30T04:46:37.000Z,1
2023-03-30T04:47:52.000Z,1
2023-03-30T04:49:08.996Z,1
2023-03-30T04:50:24.000Z,0
2023-03-30T04:51:39.000Z,2
2023-03-30T04:52:55.000Z,1
2023-03-30T04:54:11.000Z,1
2023-03-30T04:55:28.000Z,2
2023-03-30T04:56:44.000Z,1
2023-03-30T04:58:00.000Z,1
2023-03-30T04:59:16.000Z,4
2023-03-30T05:00:32.000Z,9
2023-03-30T05:01:49.000Z,9
2023-03-30T05:03:05.000Z,9
2023-03-30T05:04:21.000Z,16
2023-03-30T05:05:37.000Z,20
2023-03-30T05:06:54.542Z,23
2023-03-30T05:08:09.000Z,20
2023-03-30T05:09:25.000Z,21
2023-03-30T05:10:41.000Z,26
2023-03-30T05:11:58.000Z,32
2023-03-30T05:13:14.521Z,35
2023-03-30T05:14:30.000Z,42
2023-03-30T05:15:46.000Z,50
2023-03-30T05:17:02.000Z,61
2023-03-30T05:18:19.000Z,67
2023-03-30T05:19:35.000Z,69
2023-03-30T05:20:50.000Z,79
2023-03-30T05:22:05.000Z,87
2023-03-30T05:23:21.000Z,107
2023-03-30T05:24:36.000Z,127
2023-03-30T05:25:52.961Z,127
2023-03-30T05:27:08.000Z,122
2023-03-30T05:28:25.435Z,115
2023-03-30T05:29:41.000Z,118
2023-03-30T05:30:57.000Z,135
2023-03-30T05:32:14.128Z,146
2023-03-30T05:33:30.000Z,153
2023-03-30T05:34:46.000Z,157
2023-03-30T05:36:02.000Z,164
2023-03-30T05:37:18.000Z,187
2023-03-30T05:38:35.000Z,213
2023-03-30T05:39:51.000Z,254
2023-03-30T05:41:06.000Z,294
2023-03-30T05:42:22.000Z,327
2023-03-30T05:43:38.000Z,347
2023-03-30T05:44:55.000Z,361
2023-03-30T05:46:11.456Z,376
2023-03-30T05:47:27.000Z,394
2023-03-30T05:48:43.000Z,449
2023-03-30T05:50:00.418Z,486
2023-03-30T05:52:32.000Z,520
2023-03-30T05:53:48.000Z,580
2023-03-30T05:55:05.000Z,609
2023-03-30T05:56:21.000Z,630
2023-03-30T05:57:36.824Z,626
2023-03-30T05:58:52.000Z,663
2023-03-30T06:00:09.000Z,639
2023-03-30T06:01:25.000Z,526
2023-03-30T06:02:41.000Z,459
2023-03-30T06:03:57.000Z,469
2023-03-30T06:05:13.000Z,443
2023-03-30T06:06:30.458Z,386
2023-03-30T06:07:46.000Z,348
2023-03-30T06:09:02.000Z,343
2023-03-30T06:10:17.000Z,327
2023-03-30T06:11:34.000Z,291
2023-03-30T06:12:50.627Z,238
2023-03-30T06:14:06.000Z,246
2023-03-30T06:15:22.000Z,302
2023-03-30T06:16:39.000Z,384
2023-03-30T06:17:55.000Z,644
2023-03-30T06:19:11.000Z,635
2023-03-30T06:20:27.000Z,606
2023-03-30T06:21:44.000Z,753
2023-03-30T06:23:00.000Z,881
2023-03-30T06:24:16.000Z,1013
2023-03-30T06:25:32.000Z,1019
2023-03-30T06:26:47.000Z,983
2023-03-30T06:28:04.464Z,965
2023-03-30T06:29:20.672Z,1282
2023-03-30T06:30:36.000Z,1497
2023-03-30T06:31:52.000Z,1205
2023-03-30T06:33:09.000Z,2782
2023-03-30T06:34:25.000Z,1518
2023-03-30T06:35:41.000Z,1664
2023-03-30T06:36:57.000Z,2475
2023-03-30T06:38:14.000Z,1660
2023-03-30T06:39:30.000Z,1045
2023-03-30T06:40:46.796Z,1189
2023-03-30T06:42:03.023Z,1395
2023-03-30T06:43:18.000Z,1451
2023-03-30T06:44:34.000Z,1139
2023-03-30T06:45:50.000Z,1090
2023-03-30T06:47:06.000Z,992
2023-03-30T06:48:22.000Z,1153
2023-03-30T06:49:39.000Z,743
2023-03-30T06:50:55.000Z,2373
2023-03-30T06:52:10.000Z,1417
2023-03-30T06:53:25.000Z,1056
2023-03-30T06:54:41.000Z,1207
2023-03-30T06:55:56.000Z,1718
2023-03-30T06:57:12.000Z,1917
2023-03-30T06:58:28.000Z,1809
2023-03-30T06:59:45.000Z,1893
2023-03-30T07:01:01.000Z,2092
2023-03-30T07:02:17.000Z,1395
2023-03-30T07:03:33.000Z,5035
2023-03-30T07:04:50.000Z,5641
2023-03-30T07:06:06.000Z,3049
2023-03-30T07:07:22.794Z,2702
2023-03-30T07:08:38.000Z,3389
2023-03-30T07:09:55.250Z,1353
2023-03-30T07:11:11.000Z,1187
2023-03-30T07:12:26.000Z,781
2023-03-30T07:13:42.000Z,503
2023-03-30T07:14:58.000Z,407
2023-03-30T07:16:15.435Z,350
2023-03-30T07:17:31.000Z,445
2023-03-30T07:18:47.000Z,732
2023-03-30T07:20:04.144Z,1088
2023-03-30T07:21:20.397Z,1240
2023-03-30T07:22:36.000Z,1161
2023-03-30T07:23:52.000Z,1239
2023-03-30T07:25:08.000Z,1363
2023-03-30T07:26:25.000Z,1316
2023-03-30T07:27:41.000Z,1245
2023-03-30T07:28:56.000Z,1294
2023-03-30T07:30:13.043Z,1344
2023-03-30T07:31:28.000Z,1173
2023-03-30T07:32:45.000Z,1086
2023-03-30T07:34:01.000Z,846
2023-03-30T07:35:17.000Z,638
2023-03-30T07:36:34.201Z,689
2023-03-30T07:37:50.000Z,586
2023-03-30T07:39:06.000Z,583
2023-03-30T07:40:22.000Z,667
2023-03-30T07:41:38.000Z,507
2023-03-30T07:42:55.000Z,592
2023-03-30T07:44:11.000Z,834
2023-03-30T07:45:26.845Z,962
2023-03-30T07:46:42.000Z,1181
2023-03-30T07:47:59.000Z,1678
2023-03-30T07:49:15.522Z,1671
2023-03-30T07:50:31.000Z,1612
2023-03-30T07:51:47.000Z,1568
2023-03-30T07:53:03.000Z,2127
2023-03-30T07:54:20.000Z,2905
2023-03-30T07:55:36.000Z,2842
2023-03-30T07:56:52.912Z,1966
2023-03-30T07:58:08.000Z,1256
2023-03-30T07:59:25.000Z,875
2023-03-30T08:00:41.000Z,680
2023-03-30T08:01:56.000Z,645
2023-03-30T08:03:12.000Z,486
2023-03-30T08:04:29.000Z,399
2023-03-30T08:05:45.000Z,597
2023-03-30T08:07:01.000Z,983
2023-03-30T08:08:17.000Z,1333
2023-03-30T08:09:34.000Z,1687
2023-03-30T08:12:06.000Z,1250
2023-03-30T08:13:22.000Z,1859
2023-03-30T08:14:38.000Z,1555
2023-03-30T08:15:55.000Z,1350
2023-03-30T08:17:11.000Z,1462
2023-03-30T08:18:26.000Z,1912
2023-03-30T08:19:43.159Z,1558
2023-03-30T08:20:59.000Z,1503
2023-03-30T08:22:15.000Z,1132
2023-03-30T08:23:31.000Z,774
2023-03-30T08:24:47.000Z,952
2023-03-30T08:26:04.000Z,688
2023-03-30T08:27:20.000Z,420
2023-03-30T08:28:36.000Z,253
2023-03-30T08:29:52.000Z,211
2023-03-30T08:31:09.268Z,290
2023-03-30T08:32:25.484Z,417
2023-03-30T08:33:41.000Z,471
2023-03-30T08:34:56.000Z,455
2023-03-30T08:36:12.000Z,529
2023-03-30T08:37:29.000Z,593
2023-03-30T08:38:45.000Z,603
2023-03-30T08:40:01.000Z,577
2023-03-30T08:41:18.120Z,465
2023-03-30T08:42:34.000Z,466
2023-03-30T08:43:50.000Z,380
2023-03-30T08:45:06.000Z,595
2023-03-30T08:46:22.000Z,1125
2023-03-30T08:47:39.000Z,1980
2023-03-30T08:50:11.000Z,2207
2023-03-30T08:51:26.000Z,2187
2023-03-30T08:52:43.000Z,2192
2023-03-30T08:53:59.000Z,2031
2023-03-30T08:55:15.732Z,1574
2023-03-30T08:56:31.000Z,1270
2023-03-30T08:57:47.000Z,1391
2023-03-30T08:59:04.000Z,1010
2023-03-30T09:00:20.000Z,1700
2023-03-30T09:01:36.887Z,78880
2023-03-30T09:02:53.124Z,79774
2023-03-30T09:04:09.000Z,75117
2023-03-30T09:05:25.000Z,67564
2023-03-30T09:06:41.000Z,21966
2023-03-30T09:07:56.000Z,81228
2023-03-30T09:09:13.000Z,83331
2023-03-30T09:10:29.000Z,82371
2023-03-30T09:11:45.789Z,79657
2023-03-30T09:13:01.000Z,78614
2023-03-30T09:14:18.000Z,80030
2023-03-30T09:15:34.000Z,77816
2023-03-30T09:16:50.000Z,78710
2023-03-30T09:18:06.000Z,78564
2023-03-30T09:19:22.000Z,78275
2023-03-30T09:20:39.000Z,74632
2023-03-30T09:21:55.000Z,72420
2023-03-30T09:23:11.000Z,27919
2023-03-30T09:24:26.000Z,29423
2023-03-30T09:25:43.000Z,72172
2023-03-30T09:26:59.000Z,31984
2023-03-30T09:28:15.844Z,32223
2023-03-30T09:29:31.000Z,30841
2023-03-30T09:30:48.000Z,26253
2023-03-30T09:32:04.000Z,72523
2023-03-30T09:33:20.000Z,35921
2023-03-30T09:34:36.000Z,6558
2023-03-30T09:35:52.000Z,31351
2023-03-30T09:37:09.000Z,4184
2023-03-30T09:38:25.000Z,17629
2023-03-30T09:39:41.000Z,30540
2023-03-30T09:40:57.000Z,22823
2023-03-30T09:42:13.000Z,20825
2023-03-30T09:43:29.000Z,7623
2023-03-30T09:44:45.897Z,3301
2023-03-30T09:46:01.000Z,19936
2023-03-30T09:47:18.000Z,21191
2023-03-30T09:48:34.000Z,11464
2023-03-30T09:49:50.000Z,14305
2023-03-30T09:51:07.048Z,13552
2023-03-30T09:52:23.258Z,15892
2023-03-30T09:53:39.000Z,14273
2023-03-30T09:54:55.000Z,11168
2023-03-30T09:56:11.000Z,8769
2023-03-30T09:57:27.000Z,2270
2023-03-30T09:58:43.000Z,13110
2023-03-30T09:59:59.000Z,3867
2023-03-30T10:01:15.000Z,4028
2023-03-30T10:02:31.000Z,1924
2023-03-30T10:03:48.000Z,7038
2023-03-30T10:06:20.000Z,4440
2023-03-30T10:07:36.000Z,5303
2023-03-30T10:08:53.000Z,4025
2023-03-30T10:10:09.000Z,2440
2023-03-30T10:11:25.000Z,3084
2023-03-30T10:12:41.000Z,2610
2023-03-30T10:13:58.000Z,1696
2023-03-30T10:15:13.000Z,1214
2023-03-30T10:16:29.000Z,1703
2023-03-30T10:17:45.000Z,6878
2023-03-30T10:19:01.000Z,15917
2023-03-30T10:20:18.000Z,7718
2023-03-30T10:21:34.000Z,15368
2023-03-30T10:22:50.000Z,10501
2023-03-30T10:24:06.000Z,6571
2023-03-30T10:25:22.000Z,2214
2023-03-30T10:26:38.615Z,11993
2023-03-30T10:27:54.000Z,11180
2023-03-30T10:31:43.000Z,3343
2023-03-30T10:32:58.000Z,4143
2023-03-30T10:34:13.000Z,1251
2023-03-30T10:35:30.000Z,6226
2023-03-30T10:36:46.000Z,9661
2023-03-30T10:38:02.000Z,7039
2023-03-30T10:39:18.000Z,11627
2023-03-30T10:40:34.000Z,11130
2023-03-30T10:41:51.000Z,15612
2023-03-30T10:44:23.000Z,8864
2023-03-30T10:45:39.000Z,13781
2023-03-30T10:46:56.398Z,8595
2023-03-30T10:48:12.000Z,13009
2023-03-30T10:49:28.000Z,14088
2023-03-30T10:50:43.000Z,12572
2023-03-30T10:52:00.000Z,12574
2023-03-30T10:53:16.000Z,12115
2023-03-30T10:54:32.000Z,8756
2023-03-30T10:55:48.000Z,7455
2023-03-30T10:57:05.000Z,4772
2023-03-30T10:58:21.000Z,3221
2023-03-30T10:59:37.000Z,2334
2023-03-30T11:00:52.000Z,1839
2023-03-30T11:02:08.000Z,1533
2023-03-30T11:03:24.000Z,1301
2023-03-30T11:04:40.000Z,1066
2023-03-30T11:05:56.000Z,962
2023-03-30T11:07:12.000Z,1184
2023-03-30T11:08:29.000Z,1252
2023-03-30T11:09:45.000Z,1351
2023-03-30T11:11:01.000Z,1657
2023-03-30T11:12:17.000Z,3332
2023-03-30T11:13:34.000Z,5192
2023-03-30T11:14:50.000Z,3038
2023-03-30T11:16:06.000Z,8972
2023-03-30T11:17:22.000Z,7533
2023-03-30T11:18:38.000Z,7311
2023-03-30T11:19:54.000Z,13903
2023-03-30T11:21:10.000Z,10310
2023-03-30T11:22:26.000Z,6309
2023-03-30T11:23:42.000Z,7404
2023-03-30T11:24:59.000Z,6066
2023-03-30T11:26:15.000Z,6035
2023-03-30T11:27:31.000Z,9803
2023-03-30T11:28:47.000Z,6988
2023-03-30T11:30:04.000Z,12342
2023-03-30T11:31:20.000Z,11012
2023-03-30T11:32:36.000Z,11431
2023-03-30T11:33:52.000Z,8454
2023-03-30T11:35:08.000Z,9296
2023-03-30T11:36:24.000Z,8684
2023-03-30T11:37:40.000Z,9323
2023-03-30T11:38:56.000Z,8896
2023-03-30T11:40:13.000Z,9605
2023-03-30T11:41:29.000Z,4005
2023-03-30T11:42:45.000Z,9834
2023-03-30T11:44:01.000Z,8531
2023-03-30T11:45:17.000Z,7772
2023-03-30T11:46:34.000Z,6777
2023-03-30T11:47:50.000Z,7208
2023-03-30T11:49:06.000Z,8027
2023-03-30T11:50:22.000Z,10806
2023-03-30T11:51:38.000Z,8905
2023-03-30T11:52:54.000Z,2339
2023-03-30T11:54:10.000Z,12070
2023-03-30T11:55:26.000Z,10370
2023-03-30T11:56:43.000Z,7471
2023-03-30T11:57:59.000Z,5758
2023-03-30T12:00:31.000Z,3578
2023-03-30T12:01:48.000Z,3734
2023-03-30T12:03:04.476Z,3085
2023-03-30T12:04:20.000Z,1523
2023-03-30T12:05:36.000Z,5693
2023-03-30T12:06:52.000Z,3550
2023-03-30T12:08:08.000Z,2860
2023-03-30T12:09:24.000Z,1836
2023-03-30T12:10:40.000Z,882
2023-03-30T12:11:56.000Z,1851
2023-03-30T12:13:13.360Z,1686
2023-03-30T12:14:29.000Z,8247
2023-03-30T12:15:45.000Z,8386
2023-03-30T12:17:01.000Z,7973
2023-03-30T12:18:18.000Z,7374
2023-03-30T12:19:34.000Z,7865
2023-03-30T12:20:50.000Z,8396
2023-03-30T12:22:06.000Z,8885
2023-03-30T12:23:22.000Z,6501
2023-03-30T12:25:54.000Z,8356
2023-03-30T12:27:10.000Z,7902
2023-03-30T12:28:26.000Z,8838
2023-03-30T12:29:43.000Z,6302
2023-03-30T12:30:59.000Z,4780
2023-03-30T12:32:15.000Z,3356
2023-03-30T12:33:31.000Z,3049
2023-03-30T12:34:48.000Z,2825
2023-03-30T12:36:04.000Z,1765
2023-03-30T12:37:20.000Z,10411
2023-03-30T12:38:37.053Z,4236
2023-03-30T12:39:53.000Z,9643
2023-03-30T12:41:08.000Z,12462
2023-03-30T12:42:24.000Z,7365
2023-03-30T12:43:40.000Z,11200
2023-03-30T12:44:56.000Z,10034
2023-03-30T12:46:13.000Z,9600
2023-03-30T12:47:29.000Z,10590
2023-03-30T12:48:45.000Z,7485
2023-03-30T12:50:02.165Z,9275
2023-03-30T12:51:18.000Z,4871
2023-03-30T12:52:34.000Z,1721
2023-03-30T12:53:50.000Z,7362
2023-03-30T12:55:07.096Z,8944
2023-03-30T12:56:23.000Z,8758
2023-03-30T12:57:38.000Z,8114
2023-03-30T12:58:54.000Z,6270
2023-03-30T13:00:10.000Z,4568
2023-03-30T13:01:27.000Z,3292
2023-03-30T13:02:43.000Z,2311
2023-03-30T13:03:59.000Z,1867
2023-03-30T13:05:15.000Z,1582
2023-03-30T13:06:31.000Z,1451
2023-03-30T13:07:48.000Z,1264
2023-03-30T13:09:04.000Z,1146
2023-03-30T13:10:20.000Z,1110
2023-03-30T13:11:37.133Z,477
2023-03-30T13:12:53.000Z,792
2023-03-30T13:14:08.000Z,1769
2023-03-30T13:15:24.000Z,7810
2023-03-30T13:16:40.000Z,6665
2023-03-30T13:17:57.000Z,10897
2023-03-30T13:19:13.000Z,9286
2023-03-30T13:20:29.000Z,5809
2023-03-30T13:21:45.000Z,5480
2023-03-30T13:23:01.000Z,7508
2023-03-30T13:24:18.000Z,5162
2023-03-30T13:25:34.000Z,3416
2023-03-30T13:26:50.000Z,2167
2023-03-30T13:28:06.000Z,2144
2023-03-30T13:29:23.000Z,1976
2023-03-30T13:30:38.000Z,1995
2023-03-30T13:31:54.000Z,2873
2023-03-30T13:33:10.000Z,3535
2023-03-30T13:34:27.000Z,5628
2023-03-30T13:35:43.000Z,7795
2023-03-30T13:36:59.000Z,7970
2023-03-30T13:38:15.000Z,4793
2023-03-30T13:39:32.000Z,7069
2023-03-30T13:40:48.536Z,7441
2023-03-30T13:42:04.736Z,7338
2023-03-30T13:43:20.000Z,5473
2023-03-30T13:44:36.000Z,4997
2023-03-30T13:45:53.000Z,5822
2023-03-30T13:47:08.000Z,5815
2023-03-30T13:48:24.000Z,4827
2023-03-30T13:49:40.000Z,4552
2023-03-30T13:50:57.000Z,4139
2023-03-30T13:52:13.000Z,3443
2023-03-30T13:54:45.000Z,2284
2023-03-30T13:56:02.000Z,1941
2023-03-30T13:57:18.000Z,1706
2023-03-30T13:58:34.000Z,1535
2023-03-30T13:59:50.000Z,1131
2023-03-30T14:01:07.000Z,801
2023-03-30T14:02:23.000Z,602
2023-03-30T14:03:38.000Z,460
2023-03-30T14:04:55.011Z,351
2023-03-30T14:06:10.000Z,271
2023-03-30T14:07:27.000Z,209
2023-03-30T14:08:43.691Z,161
2023-03-30T14:09:59.000Z,107
2023-03-30T14:11:15.000Z,233
2023-03-30T14:12:32.397Z,528
2023-03-30T14:13:48.000Z,1213
2023-03-30T14:15:04.838Z,1697
2023-03-30T14:16:20.000Z,1713
2023-03-30T14:17:37.314Z,1247
2023-03-30T14:18:53.000Z,838
2023-03-30T14:20:08.794Z,802
2023-03-30T14:21:25.028Z,797
2023-03-30T14:22:41.000Z,641
2023-03-30T14:23:57.000Z,1294
2023-03-30T14:25:13.000Z,2083
2023-03-30T14:26:29.000Z,3585
2023-03-30T14:27:45.000Z,3804
2023-03-30T14:29:02.000Z,4843
2023-03-30T14:30:18.000Z,4949
2023-03-30T14:31:34.000Z,4287
2023-03-30T14:32:50.000Z,4580
2023-03-30T14:34:07.000Z,4389
2023-03-30T14:35:23.000Z,4881
2023-03-30T14:36:38.000Z,4930
2023-03-30T14:37:55.076Z,4971
2023-03-30T14:39:11.000Z,4903
2023-03-30T14:40:26.000Z,4890
2023-03-30T14:41:42.000Z,4446
2023-03-30T14:42:58.000Z,3751
2023-03-30T14:44:15.000Z,4128
2023-03-30T14:45:31.000Z,3662
2023-03-30T14:46:47.000Z,3880
2023-03-30T14:48:03.000Z,4494
2023-03-30T14:49:19.000Z,4217
2023-03-30T14:50:36.000Z,4032
2023-03-30T14:51:51.000Z,3986
2023-03-30T14:53:06.000Z,4079
2023-03-30T14:54:21.000Z,3894
2023-03-30T14:55:37.000Z,3802
2023-03-30T14:56:53.690Z,3516
2023-03-30T14:58:09.000Z,3739
2023-03-30T14:59:25.000Z,3479
2023-03-30T15:00:42.369Z,3471
2023-03-30T15:01:58.000Z,3598
2023-03-30T15:03:14.000Z,3258
2023-03-30T15:04:30.000Z,2735
2023-03-30T15:05:47.000Z,2865
2023-03-30T15:07:03.000Z,2990
2023-03-30T15:08:19.000Z,3157
2023-03-30T15:09:35.000Z,3212
2023-03-30T15:10:51.000Z,2902
2023-03-30T15:12:07.000Z,2970
2023-03-30T15:13:23.000Z,2698
2023-03-30T15:14:39.000Z,2670
2023-03-30T15:15:55.000Z,2651
2023-03-30T15:17:12.000Z,2616
2023-03-30T15:18:28.000Z,2485
2023-03-30T15:19:44.000Z,2119
2023-03-30T15:21:00.000Z,1729
2023-03-30T15:22:17.358Z,1596
2023-03-30T15:23:33.000Z,1465
2023-03-30T15:24:49.000Z,748
2023-03-30T15:26:05.000Z,2023
2023-03-30T15:27:22.292Z,3634
2023-03-30T15:28:37.000Z,3591
2023-03-30T15:29:53.000Z,3276
2023-03-30T15:31:09.000Z,2906
2023-03-30T15:32:26.237Z,2483
2023-03-30T15:33:42.000Z,2282
2023-03-30T15:34:58.697Z,2475
2023-03-30T15:36:14.000Z,2452
2023-03-30T15:37:30.000Z,2292
2023-03-30T15:38:47.000Z,2426
2023-03-30T15:40:03.000Z,2271
2023-03-30T15:41:19.000Z,2197
2023-03-30T15:42:35.000Z,1990
2023-03-30T15:43:52.348Z,1765
2023-03-30T15:45:07.000Z,1719
2023-03-30T15:46:23.000Z,1627
2023-03-30T15:47:40.057Z,1555
2023-03-30T15:48:56.000Z,1725
2023-03-30T15:50:12.000Z,1536
2023-03-30T15:51:28.740Z,1014
2023-03-30T15:52:44.000Z,833
2023-03-30T15:54:00.000Z,1010
2023-03-30T15:55:17.000Z,2312
2023-03-30T15:56:33.000Z,2723
2023-03-30T15:57:49.000Z,2006
2023-03-30T15:59:05.000Z,1419
2023-03-30T16:00:22.000Z,1102
2023-03-30T16:01:37.000Z,935
2023-03-30T16:02:53.000Z,823
2023-03-30T16:04:09.000Z,753
2023-03-30T16:05:26.000Z,711
2023-03-30T16:06:41.000Z,703
2023-03-30T16:07:56.000Z,687
2023-03-30T16:09:12.000Z,635
2023-03-30T16:10:29.000Z,590
2023-03-30T16:11:45.000Z,568
2023-03-30T16:13:01.000Z,542
2023-03-30T16:14:17.000Z,479
2023-03-30T16:15:33.000Z,399
2023-03-30T16:16:48.000Z,250
2023-03-30T16:18:04.000Z,202
2023-03-30T16:19:20.000Z,312
2023-03-30T16:20:36.000Z,388
2023-03-30T16:21:53.000Z,527
2023-03-30T16:23:09.000Z,591
2023-03-30T16:24:25.000Z,849
2023-03-30T16:25:42.124Z,1076
2023-03-30T16:26:58.000Z,1020
2023-03-30T16:28:14.000Z,1150
2023-03-30T16:29:30.000Z,1203
2023-03-30T16:30:46.000Z,1415
2023-03-30T16:32:03.000Z,1689
2023-03-30T16:33:18.000Z,1885
2023-03-30T16:34:34.000Z,2033
2023-03-30T16:35:50.000Z,1835
2023-03-30T16:37:07.000Z,1636
2023-03-30T16:38:23.000Z,1507
2023-03-30T16:39:39.000Z,1408
2023-03-30T16:40:55.000Z,1317
2023-03-30T16:42:11.000Z,1238
2023-03-30T16:43:28.000Z,1185
2023-03-30T16:44:44.000Z,1122
2023-03-30T16:46:00.000Z,1039
2023-03-30T16:47:16.000Z,980
2023-03-30T16:48:33.000Z,970
2023-03-30T16:49:49.000Z,968
2023-03-30T16:51:04.000Z,959
2023-03-30T16:52:20.000Z,960
2023-03-30T16:53:37.000Z,1001
2023-03-30T16:54:53.000Z,948
2023-03-30T16:56:09.000Z,1041
2023-03-30T16:57:25.000Z,1188
2023-03-30T16:58:41.000Z,1047
2023-03-30T16:59:58.000Z,876
2023-03-30T17:01:14.000Z,744
2023-03-30T17:02:30.000Z,656
2023-03-30T17:03:46.000Z,585
2023-03-30T17:05:03.000Z,524
2023-03-30T17:06:19.000Z,469
2023-03-30T17:07:34.000Z,417
2023-03-30T17:08:50.000Z,365
2023-03-30T17:10:07.000Z,307
2023-03-30T17:11:23.000Z,260
2023-03-30T17:12:39.000Z,224
2023-03-30T17:13:55.000Z,201
2023-03-30T17:15:12.000Z,179
2023-03-30T17:16:28.000Z,163
2023-03-30T17:17:44.000Z,148
2023-03-30T17:19:00.000Z,138
2023-03-30T17:20:16.000Z,133
2023-03-30T17:21:33.426Z,137
2023-03-30T17:22:49.000Z,134
2023-03-30T17:24:04.000Z,150
2023-03-30T17:25:20.000Z,142
2023-03-30T17:26:37.000Z,113
2023-03-30T17:27:53.000Z,76
2023-03-30T17:29:09.851Z,89
2023-03-30T17:30:26.390Z,125
2023-03-30T17:31:42.000Z,168
2023-03-30T17:32:58.000Z,177
2023-03-30T17:34:14.000Z,201
2023-03-30T17:35:30.000Z,304
2023-03-30T17:36:47.000Z,285
2023-03-30T17:38:03.000Z,427
2023-03-30T17:39:19.000Z,504
2023-03-30T17:40:34.000Z,468